sensor_id;sensor_type;location;lat;lon;timestamp;pressure;altitude;pressure_sealevel;temperature;humidity
13952;BME280;39535;52.192;9.886;2023-01-28T00:01:05;102416.94;;;2.51;73.40
13952;BME280;39535;52.192;9.886;2023-01-28T00:03:31;102423.13;;;2.55;73.26
13952;BME280;39535;52.192;9.886;2023-01-28T00:06:01;102447.16;;;2.54;72.72
13952;BME280;39535;52.192;9.886;2023-01-28T00:08:27;102458.34;;;2.54;72.26
13952;BME280;39535;52.192;9.886;2023-01-28T00:10:57;102461.44;;;2.47;74.00
13952;BME280;39535;52.192;9.886;2023-01-28T00:13:23;102443.31;;;2.46;74.67
13952;BME280;39535;52.192;9.886;2023-01-28T00:15:55;102404.53;;;2.43;75.85
13952;BME280;39535;52.192;9.886;2023-01-28T00:18:21;102365.00;;;2.42;76.29
13952;BME280;39535;52.192;9.886;2023-01-28T00:20:55;102340.09;;;2.43;76.75
13952;BME280;39535;52.192;9.886;2023-01-28T00:23:22;102318.53;;;2.41;77.00
13952;BME280;39535;52.192;9.886;2023-01-28T00:25:48;102292.00;;;2.43;77.12
13952;BME280;39535;52.192;9.886;2023-01-28T00:28:14;102301.53;;;2.44;76.36
13952;BME280;39535;52.192;9.886;2023-01-28T00:30:41;102311.69;;;2.41;76.65
13952;BME280;39535;52.192;9.886;2023-01-28T00:33:08;102326.47;;;2.45;74.37
13952;BME280;39535;52.192;9.886;2023-01-28T00:35:35;102365.94;;;2.44;73.59
13952;BME280;39535;52.192;9.886;2023-01-28T00:38:01;102390.34;;;2.33;75.35
13952;BME280;39535;52.192;9.886;2023-01-28T00:40:28;102370.69;;;2.35;74.75
13952;BME280;39535;52.192;9.886;2023-01-28T00:42:54;102373.19;;;2.33;75.95
13952;BME280;39535;52.192;9.886;2023-01-28T00:45:21;102358.75;;;2.37;75.54
13952;BME280;39535;52.192;9.886;2023-01-28T00:47:47;102347.34;;;2.32;75.93
13952;BME280;39535;52.192;9.886;2023-01-28T00:50:16;102341.03;;;2.25;76.08
13952;BME280;39535;52.192;9.886;2023-01-28T00:52:42;102326.00;;;2.34;75.71
13952;BME280;39535;52.192;9.886;2023-01-28T00:55:09;102340.91;;;2.42;75.67
13952;BME280;39535;52.192;9.886;2023-01-28T00:57:35;102355.28;;;2.36;75.47
13952;BME280;39535;52.192;9.886;2023-01-28T01:00:02;102349.28;;;2.36;75.24
13952;BME280;39535;52.192;9.886;2023-01-28T01:02:29;102347.41;;;2.33;74.80
13952;BME280;39535;52.192;9.886;2023-01-28T01:04:56;102368.19;;;2.36;74.85
13952;BME280;39535;52.192;9.886;2023-01-28T01:07:29;102387.00;;;2.35;74.08
13952;BME280;39535;52.192;9.886;2023-01-28T01:10:07;102408.53;;;2.36;73.55
13952;BME280;39535;52.192;9.886;2023-01-28T01:12:33;102425.53;;;2.32;73.93
13952;BME280;39535;52.192;9.886;2023-01-28T01:15:00;102415.06;;;2.29;74.28
13952;BME280;39535;52.192;9.886;2023-01-28T01:17:29;102416.78;;;2.29;73.87
13952;BME280;39535;52.192;9.886;2023-01-28T01:19:55;102418.41;;;2.27;74.54
13952;BME280;39535;52.192;9.886;2023-01-28T01:22:22;102408.09;;;2.27;74.25
13952;BME280;39535;52.192;9.886;2023-01-28T01:24:49;102397.50;;;2.21;74.71
13952;BME280;39535;52.192;9.886;2023-01-28T01:32:52;102357.25;;;2.23;74.85
13952;BME280;39535;52.192;9.886;2023-01-28T01:35:19;102358.94;;;2.22;74.87
13952;BME280;39535;52.192;9.886;2023-01-28T01:37:45;102358.94;;;2.22;75.57
13952;BME280;39535;52.192;9.886;2023-01-28T01:40:13;102347.59;;;2.18;76.26
13952;BME280;39535;52.192;9.886;2023-01-28T01:42:39;102329.56;;;2.18;76.63
13952;BME280;39535;52.192;9.886;2023-01-28T01:45:09;102312.50;;;2.21;76.13
13952;BME280;39535;52.192;9.886;2023-01-28T01:47:41;102317.50;;;2.17;76.47
13952;BME280;39535;52.192;9.886;2023-01-28T01:50:16;102322.03;;;2.23;75.14
13952;BME280;39535;52.192;9.886;2023-01-28T01:52:45;102354.78;;;2.26;73.37
13952;BME280;39535;52.192;9.886;2023-01-28T01:55:18;102388.28;;;2.26;73.76
13952;BME280;39535;52.192;9.886;2023-01-28T01:57:47;102412.28;;;2.25;72.87
13952;BME280;39535;52.192;9.886;2023-01-28T02:00:16;102421.38;;;2.16;73.63
13952;BME280;39535;52.192;9.886;2023-01-28T02:02:45;102428.34;;;2.19;73.63
13952;BME280;39535;52.192;9.886;2023-01-28T02:05:14;102422.53;;;2.23;73.96
13952;BME280;39535;52.192;9.886;2023-01-28T02:07:42;102432.75;;;2.22;74.05
13952;BME280;39535;52.192;9.886;2023-01-28T02:10:10;102437.09;;;2.23;73.31
13952;BME280;39535;52.192;9.886;2023-01-28T02:12:40;102439.59;;;2.21;73.04
13952;BME280;39535;52.192;9.886;2023-01-28T02:15:10;102461.03;;;2.20;72.60
13952;BME280;39535;52.192;9.886;2023-01-28T02:17:38;102467.72;;;2.16;73.98
13952;BME280;39535;52.192;9.886;2023-01-28T02:20:07;102448.00;;;2.17;73.82
13952;BME280;39535;52.192;9.886;2023-01-28T02:22:57;102443.88;;;2.21;74.26
13952;BME280;39535;52.192;9.886;2023-01-28T02:25:44;102427.97;;;2.11;75.29
13952;BME280;39535;52.192;9.886;2023-01-28T02:28:31;102412.53;;;2.11;74.85
13952;BME280;39535;52.192;9.886;2023-01-28T02:31:05;102414.00;;;2.06;74.38
13952;BME280;39535;52.192;9.886;2023-01-28T02:33:38;102414.31;;;2.12;74.25
13952;BME280;39535;52.192;9.886;2023-01-28T02:36:14;102423.84;;;2.15;73.83
13952;BME280;39535;52.192;9.886;2023-01-28T02:38:45;102443.81;;;2.19;73.05
13952;BME280;39535;52.192;9.886;2023-01-28T02:41:19;102456.19;;;2.08;74.00
13952;BME280;39535;52.192;9.886;2023-01-28T02:43:47;102432.63;;;2.01;74.18
13952;BME280;39535;52.192;9.886;2023-01-28T02:46:19;102423.66;;;2.10;73.63
13952;BME280;39535;52.192;9.886;2023-01-28T02:49:06;102445.06;;;2.09;72.98
13952;BME280;39535;52.192;9.886;2023-01-28T02:51:43;102437.25;;;2.08;73.43
13952;BME280;39535;52.192;9.886;2023-01-28T02:54:18;102448.88;;;1.99;73.71
13952;BME280;39535;52.192;9.886;2023-01-28T02:56:50;102436.38;;;2.07;72.63
13952;BME280;39535;52.192;9.886;2023-01-28T02:59:27;102453.44;;;2.05;73.05
13952;BME280;39535;52.192;9.886;2023-01-28T03:02:01;102446.50;;;2.04;73.01
13952;BME280;39535;52.192;9.886;2023-01-28T03:04:33;102436.00;;;1.99;74.20
13952;BME280;39535;52.192;9.886;2023-01-28T03:07:04;102424.31;;;2.06;73.62
13952;BME280;39535;52.192;9.886;2023-01-28T03:09:32;102439.16;;;2.12;72.96
13952;BME280;39535;52.192;9.886;2023-01-28T03:12:02;102447.63;;;2.09;73.22
13952;BME280;39535;52.192;9.886;2023-01-28T03:14:51;102453.81;;;2.13;72.55
13952;BME280;39535;52.192;9.886;2023-01-28T03:17:42;102471.47;;;2.05;72.10
13952;BME280;39535;52.192;9.886;2023-01-28T03:20:33;102471.56;;;2.07;72.16
13952;BME280;39535;52.192;9.886;2023-01-28T03:23:21;102480.75;;;2.02;71.83
13952;BME280;39535;52.192;9.886;2023-01-28T03:26:06;102482.28;;;1.98;73.20
13952;BME280;39535;52.192;9.886;2023-01-28T03:28:53;102448.06;;;2.01;73.94
13952;BME280;39535;52.192;9.886;2023-01-28T03:31:42;102428.34;;;2.01;74.27
13952;BME280;39535;52.192;9.886;2023-01-28T03:34:26;102405.16;;;2.01;74.29
13952;BME280;39535;52.192;9.886;2023-01-28T03:37:11;102414.81;;;2.05;73.44
13952;BME280;39535;52.192;9.886;2023-01-28T03:39:39;102419.50;;;1.96;74.24
13952;BME280;39535;52.192;9.886;2023-01-28T03:42:07;102398.19;;;1.98;74.38
13952;BME280;39535;52.192;9.886;2023-01-28T03:44:35;102390.38;;;1.97;75.10
13952;BME280;39535;52.192;9.886;2023-01-28T03:47:16;102356.91;;;1.97;76.57
13952;BME280;39535;52.192;9.886;2023-01-28T03:49:44;102326.94;;;1.99;76.27
13952;BME280;39535;52.192;9.886;2023-01-28T03:52:13;102327.69;;;1.96;76.24
13952;BME280;39535;52.192;9.886;2023-01-28T03:54:40;102299.97;;;1.91;76.58
13952;BME280;39535;52.192;9.886;2023-01-28T03:57:07;102316.28;;;1.91;75.29
13952;BME280;39535;52.192;9.886;2023-01-28T03:59:33;102314.81;;;1.96;75.82
13952;BME280;39535;52.192;9.886;2023-01-28T04:02:00;102304.44;;;1.95;76.27
13952;BME280;39535;52.192;9.886;2023-01-28T04:04:28;102312.38;;;1.99;75.64
13952;BME280;39535;52.192;9.886;2023-01-28T04:06:57;102334.59;;;1.97;74.60
13952;BME280;39535;52.192;9.886;2023-01-28T04:09:23;102365.72;;;2.02;73.85
13952;BME280;39535;52.192;9.886;2023-01-28T04:11:50;102391.19;;;1.96;73.54
13952;BME280;39535;52.192;9.886;2023-01-28T04:14:16;102379.78;;;1.91;75.03
13952;BME280;39535;52.192;9.886;2023-01-28T04:16:43;102349.56;;;1.87;76.89
13952;BME280;39535;52.192;9.886;2023-01-28T04:19:10;102338.50;;;1.89;76.10
13952;BME280;39535;52.192;9.886;2023-01-28T04:21:39;102341.09;;;1.89;76.04
13952;BME280;39535;52.192;9.886;2023-01-28T04:24:07;102334.59;;;1.97;76.12
13952;BME280;39535;52.192;9.886;2023-01-28T04:26:33;102335.19;;;1.92;76.69
13952;BME280;39535;52.192;9.886;2023-01-28T04:28:59;102305.31;;;1.95;77.69
13952;BME280;39535;52.192;9.886;2023-01-28T04:31:26;102284.03;;;1.99;78.57
13952;BME280;39535;52.192;9.886;2023-01-28T04:33:52;102256.31;;;1.94;78.49
13952;BME280;39535;52.192;9.886;2023-01-28T04:36:18;102247.50;;;1.89;78.43
13952;BME280;39535;52.192;9.886;2023-01-28T04:38:46;102247.44;;;1.87;77.19
13952;BME280;39535;52.192;9.886;2023-01-28T04:41:13;102266.22;;;1.85;77.02
13952;BME280;39535;52.192;9.886;2023-01-28T04:43:39;102297.22;;;1.88;75.20
13952;BME280;39535;52.192;9.886;2023-01-28T04:46:05;102343.56;;;1.88;74.45
13952;BME280;39535;52.192;9.886;2023-01-28T04:48:32;102380.97;;;1.97;72.33
13952;BME280;39535;52.192;9.886;2023-01-28T04:51:00;102446.81;;;1.92;70.65
13952;BME280;39535;52.192;9.886;2023-01-28T04:53:26;102496.06;;;1.98;71.04
13952;BME280;39535;52.192;9.886;2023-01-28T04:55:54;102522.91;;;2.04;70.50
13952;BME280;39535;52.192;9.886;2023-01-28T04:58:21;102550.59;;;2.08;69.92
13952;BME280;39535;52.192;9.886;2023-01-28T05:00:52;102563.53;;;2.09;69.83
13952;BME280;39535;52.192;9.886;2023-01-28T05:03:19;102594.47;;;2.09;68.54
13952;BME280;39535;52.192;9.886;2023-01-28T05:05:45;102631.75;;;1.99;68.00
13952;BME280;39535;52.192;9.886;2023-01-28T05:08:12;102644.63;;;1.99;68.41
13952;BME280;39535;52.192;9.886;2023-01-28T05:10:38;102669.81;;;2.05;68.27
13952;BME280;39535;52.192;9.886;2023-01-28T05:13:06;102685.91;;;2.01;68.24
13952;BME280;39535;52.192;9.886;2023-01-28T05:15:32;102696.13;;;1.99;68.04
13952;BME280;39535;52.192;9.886;2023-01-28T05:17:59;102677.97;;;1.96;68.90
13952;BME280;39535;52.192;9.886;2023-01-28T05:20:25;102691.66;;;1.64;65.94
13952;BME280;39535;52.192;9.886;2023-01-28T05:22:52;102730.88;;;1.75;67.74
13952;BME280;39535;52.192;9.886;2023-01-28T05:25:18;102724.78;;;1.89;68.49
13952;BME280;39535;52.192;9.886;2023-01-28T05:27:48;102712.31;;;1.97;68.50
13952;BME280;39535;52.192;9.886;2023-01-28T05:30:16;102703.31;;;2.05;67.83
13952;BME280;39535;52.192;9.886;2023-01-28T05:32:43;102698.38;;;2.10;68.02
13952;BME280;39535;52.192;9.886;2023-01-28T05:35:09;102696.03;;;1.98;67.83
13952;BME280;39535;52.192;9.886;2023-01-28T05:37:35;102711.34;;;1.95;67.81
13952;BME280;39535;52.192;9.886;2023-01-28T05:40:02;102724.63;;;2.03;66.90
13952;BME280;39535;52.192;9.886;2023-01-28T05:42:28;102730.91;;;1.91;66.67
13952;BME280;39535;52.192;9.886;2023-01-28T05:44:55;102724.00;;;1.90;66.78
13952;BME280;39535;52.192;9.886;2023-01-28T05:47:22;102730.34;;;1.97;67.40
13952;BME280;39535;52.192;9.886;2023-01-28T05:49:49;102719.50;;;2.03;67.21
13952;BME280;39535;52.192;9.886;2023-01-28T05:52:15;102715.22;;;2.03;67.40
13952;BME280;39535;52.192;9.886;2023-01-28T05:54:41;102716.97;;;2.04;67.66
13952;BME280;39535;52.192;9.886;2023-01-28T05:57:08;102702.56;;;1.91;69.15
13952;BME280;39535;52.192;9.886;2023-01-28T05:59:35;102683.16;;;1.98;69.07
13952;BME280;39535;52.192;9.886;2023-01-28T06:02:01;102673.03;;;2.01;67.62
13952;BME280;39535;52.192;9.886;2023-01-28T06:04:29;102683.09;;;1.96;68.01
13952;BME280;39535;52.192;9.886;2023-01-28T06:06:55;102677.00;;;1.94;68.59
13952;BME280;39535;52.192;9.886;2023-01-28T06:09:21;102668.53;;;1.97;67.94
13952;BME280;39535;52.192;9.886;2023-01-28T06:11:48;102664.81;;;1.92;69.37
13952;BME280;39535;52.192;9.886;2023-01-28T06:14:15;102657.28;;;1.95;68.87
13952;BME280;39535;52.192;9.886;2023-01-28T06:16:41;102643.66;;;1.97;66.16
13952;BME280;39535;52.192;9.886;2023-01-28T06:19:08;102694.19;;;1.95;65.27
13952;BME280;39535;52.192;9.886;2023-01-28T06:21:35;102725.66;;;1.90;66.49
13952;BME280;39535;52.192;9.886;2023-01-28T06:24:02;102706.13;;;1.93;66.66
13952;BME280;39535;52.192;9.886;2023-01-28T06:26:28;102718.44;;;1.99;66.69
13952;BME280;39535;52.192;9.886;2023-01-28T06:28:55;102736.59;;;2.02;66.28
13952;BME280;39535;52.192;9.886;2023-01-28T06:31:21;102740.88;;;2.02;65.21
13952;BME280;39535;52.192;9.886;2023-01-28T06:33:47;102751.75;;;1.96;67.89
13952;BME280;39535;52.192;9.886;2023-01-28T06:36:14;102715.78;;;1.97;66.47
13952;BME280;39535;52.192;9.886;2023-01-28T06:38:41;102722.63;;;1.97;66.44
13952;BME280;39535;52.192;9.886;2023-01-28T06:41:08;102718.19;;;1.94;66.89
13952;BME280;39535;52.192;9.886;2023-01-28T06:43:34;102727.44;;;1.91;67.32
13952;BME280;39535;52.192;9.886;2023-01-28T06:46:00;102718.84;;;1.90;68.31
13952;BME280;39535;52.192;9.886;2023-01-28T06:48:27;102682.28;;;1.81;67.87
13952;BME280;39535;52.192;9.886;2023-01-28T06:50:53;102681.31;;;1.79;66.43
13952;BME280;39535;52.192;9.886;2023-01-28T06:53:20;102695.25;;;1.83;66.57
13952;BME280;39535;52.192;9.886;2023-01-28T06:55:48;102692.41;;;1.78;68.08
13952;BME280;39535;52.192;9.886;2023-01-28T06:58:15;102681.56;;;1.84;67.72
13952;BME280;39535;52.192;9.886;2023-01-28T07:00:41;102679.84;;;1.84;67.03
13952;BME280;39535;52.192;9.886;2023-01-28T07:03:08;102696.03;;;1.82;67.52
13952;BME280;39535;52.192;9.886;2023-01-28T07:05:34;102673.47;;;1.92;67.17
13952;BME280;39535;52.192;9.886;2023-01-28T07:08:00;102694.66;;;1.72;65.29
13952;BME280;39535;52.192;9.886;2023-01-28T07:10:27;102724.13;;;1.77;66.33
13952;BME280;39535;52.192;9.886;2023-01-28T07:12:55;102722.75;;;1.84;66.29
13952;BME280;39535;52.192;9.886;2023-01-28T07:15:21;102717.38;;;1.79;68.05
13952;BME280;39535;52.192;9.886;2023-01-28T07:17:48;102699.16;;;1.76;68.75
13952;BME280;39535;52.192;9.886;2023-01-28T07:20:15;102663.41;;;1.81;69.93
13952;BME280;39535;52.192;9.886;2023-01-28T07:22:42;102633.50;;;1.84;69.56
13952;BME280;39535;52.192;9.886;2023-01-28T07:25:10;102608.09;;;1.90;70.78
13952;BME280;39535;52.192;9.886;2023-01-28T07:27:37;102572.38;;;1.80;71.74
13952;BME280;39535;52.192;9.886;2023-01-28T07:30:06;102550.25;;;1.84;70.63
13952;BME280;39535;52.192;9.886;2023-01-28T07:32:32;102566.00;;;1.90;69.43
13952;BME280;39535;52.192;9.886;2023-01-28T07:34:59;102585.31;;;1.82;68.93
13952;BME280;39535;52.192;9.886;2023-01-28T07:37:25;102597.00;;;1.75;69.66
13952;BME280;39535;52.192;9.886;2023-01-28T07:39:51;102587.75;;;1.78;68.91
13952;BME280;39535;52.192;9.886;2023-01-28T07:42:17;102598.09;;;1.80;69.39
13952;BME280;39535;52.192;9.886;2023-01-28T07:44:44;102592.72;;;1.75;69.29
13952;BME280;39535;52.192;9.886;2023-01-28T07:47:11;102618.06;;;1.84;67.87
13952;BME280;39535;52.192;9.886;2023-01-28T07:49:38;102643.91;;;1.86;67.54
13952;BME280;39535;52.192;9.886;2023-01-28T07:52:04;102656.03;;;1.88;67.78
13952;BME280;39535;52.192;9.886;2023-01-28T07:54:31;102653.88;;;1.96;67.88
13952;BME280;39535;52.192;9.886;2023-01-28T07:56:57;102658.28;;;1.82;69.51
13952;BME280;39535;52.192;9.886;2023-01-28T07:59:23;102634.75;;;1.91;68.16
13952;BME280;39535;52.192;9.886;2023-01-28T08:01:50;102657.03;;;1.90;67.68
13952;BME280;39535;52.192;9.886;2023-01-28T08:04:18;102654.28;;;1.87;68.71
13952;BME280;39535;52.192;9.886;2023-01-28T08:06:44;102639.88;;;1.91;69.06
13952;BME280;39535;52.192;9.886;2023-01-28T08:09:11;102630.28;;;1.88;69.99
13952;BME280;39535;52.192;9.886;2023-01-28T08:11:38;102627.34;;;1.81;69.60
13952;BME280;39535;52.192;9.886;2023-01-28T08:14:04;102627.97;;;1.93;69.08
13952;BME280;39535;52.192;9.886;2023-01-28T08:16:31;102633.25;;;1.96;69.81
13952;BME280;39535;52.192;9.886;2023-01-28T08:18:57;102599.66;;;1.93;67.12
13952;BME280;39535;52.192;9.886;2023-01-28T08:21:25;102673.84;;;1.67;64.52
13952;BME280;39535;52.192;9.886;2023-01-28T08:23:51;102727.59;;;1.77;65.61
13952;BME280;39535;52.192;9.886;2023-01-28T08:26:18;102736.03;;;1.75;65.00
13952;BME280;39535;52.192;9.886;2023-01-28T08:28:45;102781.00;;;1.50;64.13
13952;BME280;39535;52.192;9.886;2023-01-28T08:31:11;102788.47;;;1.61;65.97
13952;BME280;39535;52.192;9.886;2023-01-28T08:33:37;102786.63;;;1.74;67.44
13952;BME280;39535;52.192;9.886;2023-01-28T08:36:04;102769.41;;;1.73;64.95
13952;BME280;39535;52.192;9.886;2023-01-28T08:38:32;102831.44;;;1.32;62.54
13952;BME280;39535;52.192;9.886;2023-01-28T08:40:58;102863.34;;;1.21;62.78
13952;BME280;39535;52.192;9.886;2023-01-28T08:43:25;102886.69;;;1.38;63.46
13952;BME280;39535;52.192;9.886;2023-01-28T08:45:51;102873.59;;;1.49;63.81
13952;BME280;39535;52.192;9.886;2023-01-28T08:48:18;102879.69;;;1.66;64.29
13952;BME280;39535;52.192;9.886;2023-01-28T08:50:44;102878.88;;;1.82;64.58
13952;BME280;39535;52.192;9.886;2023-01-28T08:53:12;102872.50;;;1.75;63.79
13952;BME280;39535;52.192;9.886;2023-01-28T08:55:40;102886.00;;;1.56;63.52
13952;BME280;39535;52.192;9.886;2023-01-28T08:58:09;102892.75;;;1.54;64.08
13952;BME280;39535;52.192;9.886;2023-01-28T09:00:36;102890.22;;;1.70;64.31
13952;BME280;39535;52.192;9.886;2023-01-28T09:03:04;102878.16;;;1.84;64.81
13952;BME280;39535;52.192;9.886;2023-01-28T09:05:31;102877.25;;;1.84;63.06
13952;BME280;39535;52.192;9.886;2023-01-28T09:07:59;102915.63;;;1.79;62.83
13952;BME280;39535;52.192;9.886;2023-01-28T09:10:26;102938.00;;;1.80;63.18
13952;BME280;39535;52.192;9.886;2023-01-28T09:12:53;102938.78;;;1.94;64.16
13952;BME280;39535;52.192;9.886;2023-01-28T09:15:20;102929.91;;;2.04;63.69
13952;BME280;39535;52.192;9.886;2023-01-28T09:17:46;102934.75;;;2.14;62.54
13952;BME280;39535;52.192;9.886;2023-01-28T09:20:13;102942.72;;;1.87;61.49
13952;BME280;39535;52.192;9.886;2023-01-28T09:22:39;102971.41;;;1.78;61.97
13952;BME280;39535;52.192;9.886;2023-01-28T09:25:06;102975.13;;;1.84;63.05
13952;BME280;39535;52.192;9.886;2023-01-28T09:27:32;102982.31;;;1.74;62.43
13952;BME280;39535;52.192;9.886;2023-01-28T09:30:00;102989.84;;;1.56;61.75
13952;BME280;39535;52.192;9.886;2023-01-28T09:32:26;102984.25;;;1.64;62.17
13952;BME280;39535;52.192;9.886;2023-01-28T09:34:53;102998.56;;;1.73;61.79
13952;BME280;39535;52.192;9.886;2023-01-28T09:37:19;103023.84;;;1.66;61.55
13952;BME280;39535;52.192;9.886;2023-01-28T09:39:45;103056.28;;;1.77;61.70
13952;BME280;39535;52.192;9.886;2023-01-28T09:45:11;103001.06;;;2.16;65.65
13952;BME280;39535;52.192;9.886;2023-01-28T09:47:42;102965.63;;;1.97;63.94
13952;BME280;39535;52.192;9.886;2023-01-28T09:50:14;102962.25;;;1.98;63.93
13952;BME280;39535;52.192;9.886;2023-01-28T09:52:41;102955.41;;;1.99;64.63
13952;BME280;39535;52.192;9.886;2023-01-28T09:55:15;102924.09;;;2.08;67.33
13952;BME280;39535;52.192;9.886;2023-01-28T09:57:46;102861.63;;;2.27;68.52
13952;BME280;39535;52.192;9.886;2023-01-28T10:00:18;102817.56;;;2.38;67.42
13952;BME280;39535;52.192;9.886;2023-01-28T10:03:08;102840.16;;;2.28;64.84
13952;BME280;39535;52.192;9.886;2023-01-28T10:05:43;102874.31;;;2.24;65.73
13952;BME280;39535;52.192;9.886;2023-01-28T10:08:24;102880.94;;;2.04;65.12
13952;BME280;39535;52.192;9.886;2023-01-28T10:10:57;102903.06;;;1.39;64.21
13952;BME280;39535;52.192;9.886;2023-01-28T10:13:30;102913.19;;;1.51;65.19
13952;BME280;39535;52.192;9.886;2023-01-28T10:16:18;102897.00;;;1.83;69.15
13952;BME280;39535;52.192;9.886;2023-01-28T10:18:51;102825.00;;;2.01;66.44
13952;BME280;39535;52.192;9.886;2023-01-28T10:21:23;102820.59;;;1.98;65.86
13952;BME280;39535;52.192;9.886;2023-01-28T10:23:56;102829.53;;;2.05;66.81
13952;BME280;39535;52.192;9.886;2023-01-28T10:26:29;102835.47;;;2.04;65.42
13952;BME280;39535;52.192;9.886;2023-01-28T10:29:03;102828.03;;;2.25;66.54
13952;BME280;39535;52.192;9.886;2023-01-28T10:31:35;102830.47;;;1.91;65.80
13952;BME280;39535;52.192;9.886;2023-01-28T10:34:03;102820.00;;;2.04;66.38
13952;BME280;39535;52.192;9.886;2023-01-28T10:36:29;102797.28;;;2.28;68.69
13952;BME280;39535;52.192;9.886;2023-01-28T10:38:56;102755.50;;;2.34;66.40
13952;BME280;39535;52.192;9.886;2023-01-28T10:41:23;102772.22;;;2.26;63.97
13952;BME280;39535;52.192;9.886;2023-01-28T10:43:51;102829.94;;;1.82;64.45
13952;BME280;39535;52.192;9.886;2023-01-28T10:46:20;102831.25;;;1.90;66.57
13952;BME280;39535;52.192;9.886;2023-01-28T10:48:54;102809.31;;;1.96;66.51
13952;BME280;39535;52.192;9.886;2023-01-28T10:51:29;102800.09;;;1.85;66.15
13952;BME280;39535;52.192;9.886;2023-01-28T10:53:56;102805.41;;;1.88;65.45
13952;BME280;39535;52.192;9.886;2023-01-28T10:56:25;102814.13;;;1.90;65.33
13952;BME280;39535;52.192;9.886;2023-01-28T10:58:56;102824.25;;;1.87;65.59
13952;BME280;39535;52.192;9.886;2023-01-28T11:01:25;102833.00;;;1.59;66.07
13952;BME280;39535;52.192;9.886;2023-01-28T11:04:04;102844.63;;;1.68;65.77
13952;BME280;39535;52.192;9.886;2023-01-28T11:06:31;102844.03;;;1.57;66.08
13952;BME280;39535;52.192;9.886;2023-01-28T11:08:57;102849.34;;;1.60;65.49
13952;BME280;39535;52.192;9.886;2023-01-28T11:11:25;102851.47;;;1.52;65.56
13952;BME280;39535;52.192;9.886;2023-01-28T11:13:53;102843.66;;;1.66;66.46
13952;BME280;39535;52.192;9.886;2023-01-28T11:16:23;102839.56;;;1.54;66.13
13952;BME280;39535;52.192;9.886;2023-01-28T11:18:52;102832.66;;;1.53;65.37
13952;BME280;39535;52.192;9.886;2023-01-28T11:21:23;102849.81;;;1.53;65.32
13952;BME280;39535;52.192;9.886;2023-01-28T11:23:51;102863.66;;;1.55;66.40
13952;BME280;39535;52.192;9.886;2023-01-28T11:26:21;102843.22;;;1.58;66.04
13952;BME280;39535;52.192;9.886;2023-01-28T11:28:49;102846.06;;;1.63;66.28
13952;BME280;39535;52.192;9.886;2023-01-28T11:31:17;102829.00;;;1.65;66.74
13952;BME280;39535;52.192;9.886;2023-01-28T11:33:48;102832.75;;;1.55;66.24
13952;BME280;39535;52.192;9.886;2023-01-28T11:36:17;102845.38;;;1.35;66.16
13952;BME280;39535;52.192;9.886;2023-01-28T11:38:53;102829.56;;;1.44;65.38
13952;BME280;39535;52.192;9.886;2023-01-28T11:41:25;102839.06;;;1.30;65.78
13952;BME280;39535;52.192;9.886;2023-01-28T11:43:52;102835.97;;;1.36;65.49
13952;BME280;39535;52.192;9.886;2023-01-28T11:46:41;102839.69;;;1.41;65.48
13952;BME280;39535;52.192;9.886;2023-01-28T11:49:19;102852.47;;;1.39;65.21
13952;BME280;39535;52.192;9.886;2023-01-28T11:51:56;102843.31;;;1.59;65.81
13952;BME280;39535;52.192;9.886;2023-01-28T11:54:34;102846.44;;;1.09;65.07
13952;BME280;39535;52.192;9.886;2023-01-28T11:57:18;102824.63;;;1.17;65.39
13952;BME280;39535;52.192;9.886;2023-01-28T12:00:01;102824.78;;;1.35;65.80
13952;BME280;39535;52.192;9.886;2023-01-28T12:02:47;102791.19;;;1.64;67.17
13952;BME280;39535;52.192;9.886;2023-01-28T12:05:30;102778.44;;;1.82;65.01
13952;BME280;39535;52.192;9.886;2023-01-28T12:08:06;102819.22;;;1.74;63.83
13952;BME280;39535;52.192;9.886;2023-01-28T12:10:42;102841.16;;;1.67;63.49
13952;BME280;39535;52.192;9.886;2023-01-28T12:13:25;102853.25;;;1.24;64.63
13952;BME280;39535;52.192;9.886;2023-01-28T12:16:22;102828.44;;;1.39;66.41
13952;BME280;39535;52.192;9.886;2023-01-28T12:19:17;102795.38;;;1.62;65.25
13952;BME280;39535;52.192;9.886;2023-01-28T12:21:56;102796.53;;;1.67;64.45
13952;BME280;39535;52.192;9.886;2023-01-28T12:24:37;102828.06;;;1.48;63.68
13952;BME280;39535;52.192;9.886;2023-01-28T12:27:19;102825.25;;;1.74;64.61
13952;BME280;39535;52.192;9.886;2023-01-28T12:29:55;102837.19;;;1.57;62.73
13952;BME280;39535;52.192;9.886;2023-01-28T12:32:37;102855.97;;;1.71;64.42
13952;BME280;39535;52.192;9.886;2023-01-28T12:35:20;102827.72;;;2.04;65.01
13952;BME280;39535;52.192;9.886;2023-01-28T12:37:58;102798.38;;;2.33;63.86
13952;BME280;39535;52.192;9.886;2023-01-28T12:40:39;102819.19;;;2.53;60.96
13952;BME280;39535;52.192;9.886;2023-01-28T12:43:15;102884.47;;;1.74;61.63
13952;BME280;39535;52.192;9.886;2023-01-28T12:45:45;102888.38;;;1.08;63.82
13952;BME280;39535;52.192;9.886;2023-01-28T12:48:18;102849.69;;;0.92;64.65
13952;BME280;39535;52.192;9.886;2023-01-28T12:50:51;102780.84;;;1.47;64.47
13952;BME280;39535;52.192;9.886;2023-01-28T12:53:24;102777.63;;;1.05;63.14
13952;BME280;39535;52.192;9.886;2023-01-28T12:55:56;102791.78;;;0.84;64.67
13952;BME280;39535;52.192;9.886;2023-01-28T12:58:35;102755.03;;;1.46;63.81
13952;BME280;39535;52.192;9.886;2023-01-28T13:01:06;102760.50;;;1.52;63.51
13952;BME280;39535;52.192;9.886;2023-01-28T13:03:37;102759.88;;;1.56;62.75
13952;BME280;39535;52.192;9.886;2023-01-28T13:06:08;102765.03;;;2.04;62.21
13952;BME280;39535;52.192;9.886;2023-01-28T13:08:37;102758.19;;;2.37;62.93
13952;BME280;39535;52.192;9.886;2023-01-28T13:11:04;102759.88;;;2.53;61.80
13952;BME280;39535;52.192;9.886;2023-01-28T13:13:34;102800.41;;;2.06;60.16
13952;BME280;39535;52.192;9.886;2023-01-28T13:16:03;102838.63;;;2.15;60.44
13952;BME280;39535;52.192;9.886;2023-01-28T13:18:33;102874.44;;;1.79;60.66
13952;BME280;39535;52.192;9.886;2023-01-28T13:21:00;102860.72;;;1.95;61.24
13952;BME280;39535;52.192;9.886;2023-01-28T13:23:37;102869.44;;;2.28;61.44